Terminal Aerodrome Forecast
Issued by NWS

Current Version | Previous Version | Text Only | Print | Product List | Glossary On
Versions: 1 2 3 4 5 6 7 8 9 10 11 12 13 14 15
049
FTUS42 KGSP 271132
TAFAND
TAF
KAND 271132Z 2712/2812 23003KT P6SM SKC
     FM271600 24007KT P6SM SCT060 SCT100
     FM280300 23003KT P6SM SCT045
     FM281100 24003KT P6SM SCT150=

USA.gov is the U.S. government's official web portal to all federal, state and local government web resources and services.